createdAt,value
2018-03-27T00:02:05.133Z,92.00
2018-03-27T00:04:32.609Z,91.80
2018-03-27T00:07:00.341Z,91.90
2018-03-27T00:09:27.805Z,91.80
2018-03-27T00:11:55.278Z,91.80
2018-03-27T00:14:23.499Z,92.20
2018-03-27T00:16:51.732Z,91.80
2018-03-27T00:19:19.187Z,91.80
2018-03-27T00:21:47.423Z,91.80
2018-03-27T00:24:14.884Z,91.80
2018-03-27T00:26:54.293Z,92.00
2018-03-27T00:29:34.485Z,91.80
2018-03-27T00:32:14.021Z,91.70
2018-03-27T00:34:53.672Z,91.60
2018-03-27T00:37:32.979Z,91.60
2018-03-27T00:40:13.050Z,91.30
2018-03-27T00:42:59.338Z,91.30
2018-03-27T00:45:26.846Z,91.50
2018-03-27T00:47:54.305Z,91.70
2018-03-27T00:50:21.774Z,91.60
2018-03-27T00:52:49.231Z,91.50
2018-03-27T00:55:16.695Z,91.80
2018-03-27T00:57:44.407Z,91.60
2018-03-27T01:00:12.279Z,91.80
2018-03-27T01:02:39.752Z,91.70
2018-03-27T01:05:10.169Z,91.50
2018-03-27T01:07:37.639Z,91.60
2018-03-27T01:10:05.095Z,91.50
2018-03-27T01:12:32.562Z,91.30
2018-03-27T01:15:00.024Z,91.20
2018-03-27T01:17:27.485Z,91.30
2018-03-27T01:19:54.972Z,91.30
2018-03-27T01:22:23.187Z,90.80
2018-03-27T01:24:50.650Z,90.80
2018-03-27T01:27:18.147Z,91.00
2018-03-27T01:29:45.857Z,91.20
2018-03-27T01:32:13.328Z,91.10
2018-03-27T01:34:40.777Z,90.90
2018-03-27T01:37:08.353Z,91.00
2018-03-27T01:39:35.837Z,91.00
2018-03-27T01:42:03.314Z,90.90
2018-03-27T01:44:31.547Z,90.90
2018-03-27T01:46:58.998Z,90.90
2018-03-27T01:49:26.466Z,90.80
2018-03-27T01:51:53.938Z,91.10
2018-03-27T01:54:21.393Z,91.20
2018-03-27T01:56:48.859Z,91.20
2018-03-27T01:59:16.319Z,91.10
2018-03-27T02:01:43.797Z,91.20
2018-03-27T02:04:12.018Z,91.40
2018-03-27T02:06:39.761Z,91.00
2018-03-27T02:09:07.528Z,91.00
2018-03-27T02:11:40.715Z,90.90
2018-03-27T02:14:13.782Z,91.00
2018-03-27T02:16:47.741Z,90.80
2018-03-27T02:19:20.938Z,90.80
2018-03-27T02:21:47.914Z,90.80
2018-03-27T02:24:16.946Z,91.10
2018-03-27T02:26:44.406Z,91.10
2018-03-27T02:29:11.874Z,91.20
2018-03-27T02:31:40.108Z,91.20
2018-03-27T02:34:07.582Z,91.20
2018-03-27T02:36:35.044Z,91.20
2018-03-27T02:39:02.509Z,91.10
2018-03-27T02:41:29.981Z,91.40
2018-03-27T02:43:57.443Z,91.40
2018-03-27T02:46:24.907Z,91.50
2018-03-27T02:48:52.374Z,91.30
2018-03-27T02:51:19.838Z,91.60
2018-03-27T02:53:47.302Z,91.50
2018-03-27T02:56:14.765Z,91.50
2018-03-27T02:58:42.235Z,91.60
2018-03-27T03:01:10.463Z,91.40
2018-03-27T03:03:37.925Z,91.40
2018-03-27T03:06:05.393Z,91.40
2018-03-27T03:08:32.845Z,91.40
2018-03-27T03:11:01.079Z,91.80
2018-03-27T03:13:28.762Z,91.80
2018-03-27T03:15:56.224Z,91.90
2018-03-27T03:18:23.694Z,91.90
2018-03-27T03:20:51.530Z,91.80
2018-03-27T03:23:19.400Z,91.90
2018-03-27T03:25:46.867Z,91.70
2018-03-27T03:28:14.350Z,92.00
2018-03-27T03:30:41.823Z,91.90
2018-03-27T03:33:09.287Z,91.80
2018-03-27T03:35:37.527Z,92.10
2018-03-27T03:38:04.996Z,91.80
2018-03-27T03:40:32.445Z,91.90
2018-03-27T03:42:59.915Z,92.00
2018-03-27T03:45:27.372Z,91.80
2018-03-27T03:47:55.156Z,91.80
2018-03-27T03:50:22.579Z,91.80
2018-03-27T03:52:50.038Z,91.60
2018-03-27T03:55:18.270Z,91.70
2018-03-27T03:57:45.743Z,91.70
2018-03-27T04:00:13.209Z,91.70
2018-03-27T04:02:40.966Z,91.60
2018-03-27T04:05:08.426Z,91.50
2018-03-27T04:07:35.889Z,91.30
2018-03-27T04:10:03.361Z,91.40
2018-03-27T04:12:30.834Z,91.40
2018-03-27T04:14:58.299Z,91.30
2018-03-27T04:17:25.766Z,91.40
2018-03-27T04:19:53.477Z,91.60
2018-03-27T04:22:20.955Z,91.50
2018-03-27T04:24:48.423Z,91.70
2018-03-27T04:27:16.150Z,91.30
2018-03-27T04:29:43.620Z,90.80
2018-03-27T04:32:11.093Z,91.10
2018-03-27T04:34:38.546Z,91.30
2018-03-27T04:37:06.019Z,91.20
2018-03-27T04:39:33.484Z,91.30
2018-03-27T04:42:01.201Z,91.30
2018-03-27T04:44:28.685Z,91.30
2018-03-27T04:46:56.138Z,91.50
2018-03-27T04:49:23.601Z,91.50
2018-03-27T04:51:51.061Z,91.30
2018-03-27T04:54:18.589Z,91.40
2018-03-27T04:56:46.013Z,91.60
2018-03-27T04:59:14.230Z,91.90
2018-03-27T05:01:41.712Z,91.90
2018-03-27T05:04:09.174Z,91.90
2018-03-27T05:06:36.645Z,91.80
2018-03-27T05:09:04.358Z,92.00
2018-03-27T05:11:31.814Z,92.00
2018-03-27T05:13:59.286Z,92.10
2018-03-27T05:16:26.742Z,92.20
2018-03-27T05:18:54.209Z,92.20
2018-03-27T05:21:21.673Z,92.30
2018-03-27T05:23:49.131Z,92.50
2018-03-27T05:26:16.597Z,92.40
2018-03-27T05:28:44.052Z,92.20
2018-03-27T05:31:11.534Z,92.10
2018-03-27T05:33:39.759Z,92.10
2018-03-27T05:36:07.230Z,92.10
2018-03-27T05:38:34.967Z,91.90
2018-03-27T05:41:02.434Z,92.10
2018-03-27T05:43:29.900Z,92.10
2018-03-27T05:45:57.363Z,92.00
2018-03-27T05:48:24.862Z,92.00
2018-03-27T05:50:53.106Z,92.20
2018-03-27T05:53:20.562Z,92.20
2018-03-27T05:55:48.048Z,92.50
2018-03-27T05:58:15.491Z,92.30
2018-03-27T06:00:42.963Z,92.30
2018-03-27T06:03:11.486Z,92.60
2018-03-27T06:05:38.950Z,92.50
2018-03-27T06:08:06.431Z,92.30
2018-03-27T06:10:34.168Z,92.60
2018-03-27T06:13:01.935Z,92.70
2018-03-27T06:15:29.399Z,93.00
2018-03-27T06:17:57.552Z,92.70
2018-03-27T06:20:25.023Z,92.40
2018-03-27T06:22:52.482Z,92.50
2018-03-27T06:25:19.963Z,92.20
2018-03-27T06:27:47.441Z,92.20
2018-03-27T06:30:14.905Z,92.20
2018-03-27T06:32:42.378Z,92.20
2018-03-27T06:35:10.602Z,92.30
2018-03-27T06:37:38.077Z,92.20
2018-03-27T06:40:05.543Z,92.30
2018-03-27T06:42:33.022Z,92.60
2018-03-27T06:45:00.487Z,92.60
2018-03-27T06:47:27.960Z,92.50
2018-03-27T06:49:55.436Z,92.50
2018-03-27T06:52:22.908Z,92.90
2018-03-27T06:54:50.382Z,92.80
2018-03-27T06:57:17.892Z,92.80
2018-03-27T06:59:45.356Z,92.80
2018-03-27T07:02:12.840Z,92.70
2018-03-27T07:04:40.290Z,92.80
2018-03-27T07:07:07.767Z,92.90
2018-03-27T07:09:35.260Z,93.20
2018-03-27T07:12:03.576Z,93.60
2018-03-27T07:14:31.068Z,93.60
2018-03-27T07:16:58.534Z,93.50
2018-03-27T07:19:26.010Z,93.50
2018-03-27T07:21:54.245Z,93.00
2018-03-27T07:24:21.705Z,93.00
2018-03-27T07:26:49.535Z,92.90
2018-03-27T07:29:17.002Z,92.70
2018-03-27T07:31:44.470Z,92.70
2018-03-27T07:34:11.938Z,92.90
2018-03-27T07:36:39.669Z,93.00
2018-03-27T07:39:07.909Z,93.10
2018-03-27T07:41:36.137Z,93.00
2018-03-27T07:44:03.635Z,93.00
2018-03-27T07:46:31.101Z,92.90
2018-03-27T07:48:59.335Z,93.40
2018-03-27T07:51:26.803Z,93.30
2018-03-27T07:53:54.268Z,93.30
2018-03-27T07:56:21.738Z,92.90
2018-03-27T07:58:49.988Z,92.30
2018-03-27T08:01:18.619Z,92.20
2018-03-27T08:03:50.302Z,91.60
2018-03-27T08:06:17.766Z,91.60
2018-03-27T08:08:45.242Z,91.40
2018-03-27T08:11:13.502Z,91.00
2018-03-27T08:13:41.002Z,90.90
2018-03-27T08:16:09.530Z,91.50
2018-03-27T08:18:37.026Z,91.50
2018-03-27T08:21:04.490Z,90.60
2018-03-27T08:23:32.718Z,90.90
2018-03-27T08:26:00.190Z,90.90
2018-03-27T08:28:27.657Z,90.90
2018-03-27T08:30:55.127Z,91.00
2018-03-27T08:33:22.607Z,90.80
2018-03-27T08:35:50.847Z,90.60
2018-03-27T08:38:18.325Z,90.50
2018-03-27T08:40:45.794Z,90.90
2018-03-27T08:43:13.251Z,90.50
2018-03-27T08:45:40.723Z,90.20
2018-03-27T08:48:08.956Z,86.80
2018-03-27T08:50:36.423Z,86.70
2018-03-27T08:53:03.890Z,88.00
2018-03-27T08:55:31.359Z,87.20
2018-03-27T08:57:58.830Z,88.20
2018-03-27T09:00:27.067Z,87.30
2018-03-27T09:02:54.555Z,87.20
2018-03-27T09:05:22.838Z,85.40
2018-03-27T09:07:50.252Z,85.00
2018-03-27T09:10:17.724Z,85.60
2018-03-27T09:12:45.178Z,85.20
2018-03-27T09:15:12.658Z,84.10
2018-03-27T09:17:40.116Z,84.10
2018-03-27T09:20:08.350Z,83.30
2018-03-27T09:22:35.811Z,83.10
2018-03-27T09:25:03.280Z,80.10
2018-03-27T09:27:30.736Z,81.70
2018-03-27T09:29:58.208Z,79.30
2018-03-27T09:32:25.687Z,79.90
2018-03-27T09:34:53.930Z,79.30
2018-03-27T09:37:21.386Z,79.30
2018-03-27T09:39:48.861Z,79.50
2018-03-27T09:42:16.327Z,78.80
2018-03-27T09:44:44.552Z,79.60
2018-03-27T09:47:12.236Z,79.50
2018-03-27T09:49:40.540Z,79.10
2018-03-27T09:52:13.459Z,79.80
2018-03-27T09:54:40.933Z,79.80
2018-03-27T09:57:12.958Z,78.20
2018-03-27T09:59:41.186Z,78.00
2018-03-27T10:02:09.751Z,80.00
2018-03-27T10:04:37.512Z,80.00
2018-03-27T10:07:04.981Z,77.30
2018-03-27T10:09:32.735Z,76.00
2018-03-27T10:12:00.216Z,78.00
2018-03-27T10:14:27.894Z,76.90
2018-03-27T10:16:55.362Z,75.30
2018-03-27T10:19:22.830Z,75.30
2018-03-27T10:24:31.087Z,70.90
2018-03-27T10:26:58.564Z,67.00
2018-03-27T10:29:26.311Z,66.20
2018-03-27T10:31:54.079Z,68.40
2018-03-27T10:34:21.543Z,71.10
2018-03-27T10:36:49.018Z,68.80
2018-03-27T10:39:16.754Z,68.20
2018-03-27T10:41:44.238Z,70.90
2018-03-27T10:44:11.694Z,71.00
2018-03-27T10:46:39.178Z,68.20
2018-03-27T10:49:06.642Z,68.70
2018-03-27T10:51:34.098Z,66.50
2018-03-27T10:54:01.579Z,56.70
2018-03-27T10:56:29.037Z,66.80
2018-03-27T10:58:56.520Z,65.10
2018-03-27T11:01:24.278Z,61.60
2018-03-27T11:03:51.814Z,60.20
2018-03-27T11:06:19.258Z,59.30
2018-03-27T11:08:47.502Z,57.40
2018-03-27T11:11:14.974Z,57.40
2018-03-27T11:13:42.445Z,58.80
2018-03-27T11:16:10.274Z,59.10
2018-03-27T11:18:37.715Z,59.60
2018-03-27T11:21:05.187Z,61.90
2018-03-27T11:23:36.925Z,59.70
2018-03-27T11:26:04.388Z,60.80
2018-03-27T11:28:31.871Z,55.10
2018-03-27T11:30:59.348Z,57.10
2018-03-27T11:33:27.600Z,56.30
2018-03-27T11:35:55.338Z,56.30
2018-03-27T11:38:22.815Z,51.50
2018-03-27T11:40:50.277Z,53.60
2018-03-27T11:43:17.742Z,52.70
2018-03-27T11:45:45.217Z,54.40
2018-03-27T11:48:13.458Z,57.20
2018-03-27T11:50:40.917Z,57.20
2018-03-27T11:53:08.387Z,56.20
2018-03-27T11:55:35.873Z,56.30
2018-03-27T11:58:04.117Z,55.50
2018-03-27T12:00:31.587Z,55.50
2018-03-27T12:02:59.051Z,56.80
2018-03-27T12:05:26.765Z,58.80
2018-03-27T12:07:54.531Z,58.50
2018-03-27T12:10:22.000Z,56.80
2018-03-27T12:12:49.750Z,59.60
2018-03-27T12:15:17.288Z,61.70
2018-03-27T12:17:45.514Z,60.10
2018-03-27T12:20:12.973Z,60.10
2018-03-27T12:22:40.449Z,58.60
2018-03-27T12:25:07.910Z,58.80
2018-03-27T12:27:35.624Z,58.10
2018-03-27T12:30:03.386Z,57.80
2018-03-27T12:32:30.854Z,57.50
2018-03-27T12:34:58.607Z,56.50
2018-03-27T12:37:26.066Z,56.80
2018-03-27T12:39:53.549Z,56.90
2018-03-27T12:42:21.024Z,55.60
2018-03-27T12:44:48.489Z,55.40
2018-03-27T12:47:15.972Z,54.90
2018-03-27T12:49:43.451Z,56.90
2018-03-27T12:52:10.954Z,54.90
2018-03-27T12:54:38.392Z,54.40
2018-03-27T12:57:05.857Z,52.40
2018-03-27T12:59:33.346Z,53.00
2018-03-27T13:02:01.591Z,53.20
2018-03-27T13:04:29.077Z,53.20
2018-03-27T13:06:56.575Z,52.50
2018-03-27T13:09:24.033Z,52.80
2018-03-27T13:11:51.552Z,51.30
2018-03-27T13:14:19.258Z,48.70
2018-03-27T13:16:46.748Z,52.20
2018-03-27T13:19:14.227Z,53.20
2018-03-27T13:21:42.466Z,54.40
2018-03-27T13:24:09.942Z,54.30
2018-03-27T13:26:37.406Z,53.60
2018-03-27T13:29:04.918Z,55.30
2018-03-27T13:31:32.374Z,51.90
2018-03-27T13:33:59.856Z,52.60
2018-03-27T13:36:27.595Z,52.70
2018-03-27T13:38:55.405Z,55.30
2018-03-27T13:41:23.123Z,55.20
2018-03-27T13:43:50.580Z,56.10
2018-03-27T13:46:18.062Z,56.70
2018-03-27T13:48:45.525Z,56.80
2018-03-27T13:51:12.998Z,55.00
2018-03-27T13:53:40.463Z,54.10
2018-03-27T13:56:07.936Z,54.10
2018-03-27T13:58:36.158Z,54.00
2018-03-27T14:01:03.638Z,54.00
2018-03-27T14:03:31.097Z,54.70
2018-03-27T14:05:58.583Z,55.00
2018-03-27T14:08:26.826Z,55.70
2018-03-27T14:10:54.560Z,56.50
2018-03-27T14:13:22.035Z,58.10
2018-03-27T14:15:49.505Z,57.30
2018-03-27T14:18:16.978Z,58.30
2018-03-27T14:20:46.333Z,57.60
2018-03-27T14:23:13.801Z,57.60
2018-03-27T14:25:41.330Z,58.00
2018-03-27T14:28:08.930Z,59.60
2018-03-27T14:30:36.505Z,59.20
2018-03-27T14:33:07.510Z,57.50
2018-03-27T14:35:34.983Z,56.60
2018-03-27T14:38:03.138Z,56.50
2018-03-27T14:40:30.605Z,56.30
2018-03-27T14:42:58.074Z,56.40
2018-03-27T14:45:25.549Z,56.50
2018-03-27T14:47:53.270Z,56.30
2018-03-27T14:50:20.735Z,54.40
2018-03-27T14:52:49.155Z,55.40
2018-03-27T14:55:17.857Z,55.50
2018-03-27T14:57:45.510Z,54.50
2018-03-27T15:00:12.991Z,52.60
2018-03-27T15:02:40.498Z,51.30
2018-03-27T15:05:08.233Z,52.30
2018-03-27T15:07:35.695Z,56.30
2018-03-27T15:10:03.168Z,54.30
2018-03-27T15:12:31.398Z,53.80
2018-03-27T15:14:59.641Z,53.30
2018-03-27T15:17:27.116Z,53.30
2018-03-27T15:19:55.346Z,55.10
2018-03-27T15:22:22.948Z,54.90
2018-03-27T15:24:50.407Z,53.60
2018-03-27T15:27:17.895Z,53.70
2018-03-27T15:29:45.377Z,52.50
2018-03-27T15:32:12.880Z,52.10
2018-03-27T15:34:40.358Z,52.90
2018-03-27T15:37:08.586Z,53.80
2018-03-27T15:39:36.281Z,53.80
2018-03-27T15:42:05.091Z,53.70
2018-03-27T15:44:32.587Z,53.10
2018-03-27T15:47:00.075Z,51.80
2018-03-27T15:49:27.539Z,51.90
2018-03-27T15:51:55.012Z,51.20
2018-03-27T15:54:23.247Z,53.00
2018-03-27T15:56:50.731Z,53.00
2018-03-27T15:59:18.954Z,53.90
2018-03-27T16:01:46.430Z,53.80
2018-03-27T16:04:13.902Z,52.90
2018-03-27T16:06:41.362Z,51.70
2018-03-27T16:09:08.838Z,53.60
2018-03-27T16:11:37.071Z,51.70
2018-03-27T16:14:04.542Z,51.70
2018-03-27T16:16:32.012Z,53.20
2018-03-27T16:18:59.486Z,53.90
2018-03-27T16:21:27.736Z,54.00
2018-03-27T16:23:55.210Z,54.00
2018-03-27T16:26:22.698Z,54.50
2018-03-27T16:28:50.183Z,55.30
2018-03-27T16:31:17.941Z,55.20
2018-03-27T16:33:45.710Z,56.10
2018-03-27T16:36:13.177Z,55.90
2018-03-27T16:38:40.675Z,56.10
2018-03-27T16:41:08.905Z,58.10
2018-03-27T16:43:36.423Z,58.10
2018-03-27T16:46:03.854Z,57.40
2018-03-27T16:48:31.311Z,58.00
2018-03-27T16:51:00.506Z,57.20
2018-03-27T16:53:27.995Z,57.20
2018-03-27T16:55:56.234Z,57.50
2018-03-27T16:58:27.258Z,57.50
2018-03-27T17:00:55.502Z,58.60
2018-03-27T17:03:22.954Z,58.00
2018-03-27T17:05:50.466Z,59.00
2018-03-27T17:08:17.943Z,59.70
2018-03-27T17:10:45.407Z,60.30
2018-03-27T17:13:13.650Z,60.40
2018-03-27T17:15:41.148Z,60.40
2018-03-27T17:18:08.631Z,61.60
2018-03-27T17:20:36.083Z,61.40
2018-03-27T17:23:03.558Z,61.50
2018-03-27T17:25:31.311Z,61.90
2018-03-27T17:27:58.777Z,62.10
2018-03-27T17:30:26.254Z,62.60
2018-03-27T17:32:54.592Z,63.40
2018-03-27T17:35:22.076Z,63.40
2018-03-27T17:37:49.754Z,63.30
2018-03-27T17:40:17.592Z,63.70
2018-03-27T17:42:45.059Z,65.20
2018-03-27T17:45:12.523Z,65.00
2018-03-27T17:47:44.346Z,64.70
2018-03-27T17:50:11.845Z,65.20
2018-03-27T17:52:39.314Z,65.50
2018-03-27T17:55:07.764Z,66.00
2018-03-27T17:57:35.233Z,66.20
2018-03-27T18:00:02.699Z,67.30
2018-03-27T18:02:30.166Z,67.20
2018-03-27T18:04:57.638Z,67.50
2018-03-27T18:07:25.108Z,68.70
2018-03-27T18:09:53.348Z,68.20
2018-03-27T18:12:20.844Z,68.20
2018-03-27T18:14:49.129Z,68.50
2018-03-27T18:17:16.554Z,68.50
2018-03-27T18:19:44.040Z,69.00
2018-03-27T18:22:12.266Z,69.70
2018-03-27T18:24:39.738Z,69.60
2018-03-27T18:27:07.202Z,70.00
2018-03-27T18:29:38.115Z,70.30
2018-03-27T18:32:06.531Z,71.00
2018-03-27T18:34:34.774Z,71.60
2018-03-27T18:37:02.250Z,71.60
2018-03-27T18:39:29.740Z,72.50
2018-03-27T18:41:57.223Z,73.10
2018-03-27T18:44:24.696Z,73.50
2018-03-27T18:46:52.230Z,73.20
2018-03-27T18:49:19.709Z,73.40
2018-03-27T18:51:47.247Z,73.90
2018-03-27T18:54:17.718Z,74.10
2018-03-27T18:56:45.451Z,74.30
2018-03-27T18:59:25.457Z,74.00
2018-03-27T19:01:52.920Z,74.20
2018-03-27T19:04:21.219Z,74.70
2018-03-27T19:06:48.932Z,74.20
2018-03-27T19:09:16.403Z,74.40
2018-03-27T19:11:43.883Z,74.90
2018-03-27T19:14:12.657Z,76.00
2018-03-27T19:16:40.250Z,75.90
2018-03-27T19:19:09.425Z,76.40
2018-03-27T19:21:37.662Z,76.10
2018-03-27T19:24:05.400Z,75.90
2018-03-27T19:26:33.020Z,77.20
2018-03-27T19:29:01.242Z,76.60
2018-03-27T19:31:28.821Z,76.60
2018-03-27T19:33:56.386Z,76.20
2018-03-27T19:36:23.913Z,76.00
2018-03-27T19:38:51.407Z,75.20
2018-03-27T19:41:18.879Z,75.90
2018-03-27T19:43:46.833Z,76.20
2018-03-27T19:46:14.361Z,75.70
2018-03-27T19:48:42.978Z,75.30
2018-03-27T19:51:10.654Z,75.60
2018-03-27T19:53:43.521Z,75.80
2018-03-27T19:56:10.983Z,76.00
2018-03-27T19:58:38.447Z,76.90
2018-03-27T20:03:52.934Z,76.60
2018-03-27T20:06:21.173Z,77.60
2018-03-27T20:08:48.634Z,77.30
2018-03-27T20:11:16.148Z,77.50
2018-03-27T20:13:43.558Z,77.60
2018-03-27T20:16:11.287Z,77.30
2018-03-27T20:18:38.742Z,77.20
2018-03-27T20:21:06.207Z,78.10
2018-03-27T20:23:33.676Z,77.30
2018-03-27T20:26:01.422Z,77.20
2018-03-27T20:28:28.890Z,77.60
2018-03-27T20:30:56.382Z,77.80
2018-03-27T20:33:23.859Z,77.30
2018-03-27T20:35:52.087Z,76.80
2018-03-27T20:38:19.833Z,76.70
2018-03-27T20:40:47.307Z,77.00
2018-03-27T20:43:14.774Z,77.70
2018-03-27T20:45:42.724Z,76.70
2018-03-27T20:48:10.200Z,76.80
2018-03-27T20:50:37.650Z,76.10
2018-03-27T20:53:05.124Z,74.80
2018-03-27T20:55:32.617Z,73.60
2018-03-27T20:58:00.496Z,72.30
2018-03-27T21:00:27.966Z,72.40
2018-03-27T21:02:55.736Z,72.40
2018-03-27T21:05:24.735Z,72.20
2018-03-27T21:07:52.195Z,74.10
2018-03-27T21:10:19.670Z,73.90
2018-03-27T21:12:47.521Z,73.20
2018-03-27T21:15:14.975Z,72.80
2018-03-27T21:17:42.734Z,73.70
2018-03-27T21:20:10.190Z,74.20
2018-03-27T21:22:37.666Z,74.20
2018-03-27T21:25:05.157Z,75.00
2018-03-27T21:27:32.892Z,73.80
2018-03-27T21:30:00.346Z,74.40
2018-03-27T21:32:28.091Z,73.20
2018-03-27T21:34:55.559Z,73.60
2018-03-27T21:37:23.019Z,73.90
2018-03-27T21:39:52.633Z,73.00
2018-03-27T21:42:20.375Z,72.40
2018-03-27T21:44:47.837Z,72.90
2018-03-27T21:47:15.303Z,73.20
2018-03-27T21:49:42.766Z,72.90
2018-03-27T21:52:10.281Z,73.90
2018-03-27T21:54:37.711Z,73.10
2018-03-27T21:57:05.179Z,72.10
2018-03-27T21:59:33.410Z,71.90
2018-03-27T22:02:00.874Z,71.80
2018-03-27T22:04:28.334Z,72.50
2018-03-27T22:06:55.806Z,72.80
2018-03-27T22:09:23.267Z,73.30
2018-03-27T22:11:50.742Z,73.90
2018-03-27T22:14:18.967Z,74.40
2018-03-27T22:16:46.470Z,74.40
2018-03-27T22:19:13.922Z,74.90
2018-03-27T22:21:41.393Z,76.20
2018-03-27T22:24:09.630Z,77.70
2018-03-27T22:26:37.429Z,77.60
2018-03-27T22:29:05.670Z,77.70
2018-03-27T22:31:33.399Z,77.70
2018-03-27T22:34:00.873Z,78.50
2018-03-27T22:36:28.329Z,78.00
2018-03-27T22:38:55.802Z,78.90
2018-03-27T22:41:23.267Z,79.40
2018-03-27T22:43:51.004Z,78.70
2018-03-27T22:46:18.474Z,78.30
2018-03-27T22:48:45.933Z,78.80
2018-03-27T22:51:13.396Z,79.60
2018-03-27T22:53:40.855Z,80.80
2018-03-27T22:56:08.342Z,81.70
2018-03-27T22:58:35.802Z,82.70
2018-03-27T23:01:04.034Z,83.50
2018-03-27T23:03:31.493Z,83.20
2018-03-27T23:05:58.953Z,83.60
2018-03-27T23:08:26.432Z,84.10
2018-03-27T23:10:53.896Z,83.70
2018-03-27T23:13:21.371Z,84.20
2018-03-27T23:15:49.594Z,84.90
2018-03-27T23:18:17.057Z,84.80
2018-03-27T23:20:44.521Z,85.20
2018-03-27T23:23:11.977Z,85.80
2018-03-27T23:25:39.442Z,85.50
2018-03-27T23:28:07.116Z,85.60
2018-03-27T23:30:34.834Z,85.20
2018-03-27T23:33:02.294Z,85.70
2018-03-27T23:35:29.767Z,86.20
2018-03-27T23:37:57.235Z,87.00
2018-03-27T23:40:24.698Z,86.70
2018-03-27T23:42:52.155Z,86.90
2018-03-27T23:45:19.628Z,86.20
2018-03-27T23:47:47.239Z,86.70
2018-03-27T23:50:14.706Z,87.70
2018-03-27T23:52:42.178Z,86.80
2018-03-27T23:55:10.399Z,87.10
2018-03-27T23:57:38.882Z,86.80
